Time;durP1;ratioP1;P1;durP2;ratioP2;P2;SDS_P1;SDS_P2;PMS_P1;PMS_P2;Temp;Humidity;BMP_temperature;BMP_pressure;BME280_temperature;BME280_humidity;BME280_pressure;Samples;Min_cycle;Max_cycle;Signal;HPM_P1;HPM_P2
2022/11/03 00:01:56;;;;;;;17.97;2.70;;;11.80;99.90;;;;;;5073450;28;20286;-76
2022/11/03 00:04:22;;;;;;;12.83;2.93;;;11.80;99.90;;;;;;5073595;28;20469;-76
2022/11/03 00:06:50;;;;;;;13.67;3.13;;;11.80;99.90;;;;;;5073269;28;20048;-76
2022/11/03 00:09:17;;;;;;;18.93;3.60;;;11.80;99.90;;;;;;5073334;28;20295;-76
2022/11/03 00:11:44;;;;;;;13.20;3.30;;;11.80;99.90;;;;;;5073155;28;20322;-76
2022/11/03 00:14:10;;;;;;;13.20;3.03;;;11.80;99.90;;;;;;5073403;28;20337;-76
2022/11/03 00:16:38;;;;;;;17.33;4.03;;;11.70;99.90;;;;;;5073030;28;20282;-76
2022/11/03 00:19:05;;;;;;;14.03;3.77;;;11.70;99.90;;;;;;5073268;28;20278;-76
2022/11/03 00:21:31;;;;;;;16.40;2.97;;;11.70;99.90;;;;;;5073266;28;20312;-76
2022/11/03 00:23:57;;;;;;;14.53;2.60;;;11.70;99.90;;;;;;5073061;28;20385;-76
2022/11/03 00:26:25;;;;;;;16.60;3.43;;;11.70;99.90;;;;;;5073245;28;20286;-76
2022/11/03 00:28:59;;;;;;;13.53;2.87;;;11.70;99.90;;;;;;5072877;28;20302;-76
2022/11/03 00:31:30;;;;;;;14.40;2.87;;;11.70;99.90;;;;;;5072476;28;20287;-76
2022/11/03 00:33:57;;;;;;;12.70;3.00;;;11.60;99.90;;;;;;5072550;28;20334;-76
2022/11/03 00:36:28;;;;;;;18.70;3.77;;;11.60;99.90;;;;;;5073080;28;20348;-76
2022/11/03 00:38:56;;;;;;;13.53;3.57;;;11.60;99.90;;;;;;5072536;28;20770;-76
2022/11/03 00:41:23;;;;;;;13.40;3.13;;;11.60;99.90;;;;;;5073236;28;20279;-76
2022/11/03 00:43:49;;;;;;;12.67;3.23;;;11.60;99.90;;;;;;5072712;28;20278;-76
2022/11/03 00:46:15;;;;;;;12.17;2.97;;;11.60;99.90;;;;;;5073057;28;20279;-76
2022/11/03 00:48:41;;;;;;;15.93;3.17;;;11.50;99.90;;;;;;5072571;28;20317;-76
2022/11/03 00:51:12;;;;;;;14.73;3.07;;;11.50;99.90;;;;;;5088815;28;20435;-76
2022/11/03 00:53:52;;;;;;;16.60;3.90;;;11.50;99.90;;;;;;5072340;28;20852;-76
2022/11/03 00:56:30;;;;;;;14.17;3.43;;;11.50;99.90;;;;;;5072611;28;20771;-76
2022/11/03 00:58:58;;;;;;;12.70;3.43;;;11.50;99.90;;;;;;5072304;28;20778;-75
2022/11/03 01:01:30;;;;;;;14.03;2.80;;;11.50;99.90;;;;;;5072563;28;20274;-75
2022/11/03 01:06:49;;;;;;;20.25;3.05;;;11.40;99.90;;;;;;5072648;28;20283;-76
2022/11/03 01:09:19;;;;;;;12.80;3.42;;;11.40;99.90;;;;;;5072811;28;20036;-76
2022/11/03 01:12:10;;;;;;;11.20;2.90;;;11.40;99.90;;;;;;5076552;28;20443;-76
2022/11/03 01:14:42;;;;;;;10.40;2.70;;;11.40;99.90;;;;;;5076881;28;20284;-76
2022/11/03 01:17:19;;;;;;;14.63;3.00;;;11.40;99.90;;;;;;5076679;28;20282;-76
2022/11/03 01:19:45;;;;;;;14.07;2.90;;;11.40;99.90;;;;;;5076397;28;20267;-76
2022/11/03 01:22:11;;;;;;;13.13;3.23;;;11.40;99.90;;;;;;5109631;28;20295;-76
2022/11/03 01:24:40;;;;;;;14.93;4.27;;;11.40;99.90;;;;;;5076534;28;20386;-76
2022/11/03 01:27:06;;;;;;;15.07;3.10;;;11.30;99.90;;;;;;5109183;28;20080;-76
2022/11/03 01:29:32;;;;;;;16.33;3.47;;;11.30;99.90;;;;;;5058673;28;20845;-76
2022/11/03 01:31:57;;;;;;;17.83;3.80;;;11.30;99.90;;;;;;5076044;28;20362;-76
2022/11/03 01:34:23;;;;;;;10.67;3.30;;;11.30;99.90;;;;;;5075855;28;20405;-75
2022/11/03 01:36:49;;;;;;;15.33;3.13;;;11.30;99.90;;;;;;5075947;28;20056;-76
2022/11/03 01:39:16;;;;;;;13.47;2.93;;;11.30;99.90;;;;;;5076206;28;20045;-76
2022/11/03 01:41:45;;;;;;;15.60;3.17;;;11.30;99.90;;;;;;5075984;28;20044;-77
2022/11/03 01:44:10;;;;;;;15.13;2.73;;;11.30;99.90;;;;;;5076359;28;20289;-76
2022/11/03 01:46:42;;;;;;;15.53;3.87;;;11.30;99.90;;;;;;5076128;28;20279;-76
2022/11/03 01:49:30;;;;;;;15.63;3.07;;;11.20;99.90;;;;;;5076110;28;20041;-76
2022/11/03 01:52:05;;;;;;;12.67;3.83;;;11.20;99.90;;;;;;5074889;28;20344;-76
2022/11/03 01:54:34;;;;;;;12.23;3.27;;;11.20;99.90;;;;;;5076051;28;20286;-76
2022/11/03 01:57:02;;;;;;;13.93;3.30;;;11.20;99.90;;;;;;5108575;28;20374;-76
2022/11/03 01:59:28;;;;;;;16.20;4.00;;;11.20;99.90;;;;;;5075869;28;20278;-76
2022/11/03 02:01:54;;;;;;;17.33;3.53;;;11.10;99.90;;;;;;5075553;28;20283;-76
2022/11/03 02:04:26;;;;;;;15.33;3.13;;;11.10;99.90;;;;;;5076099;28;20041;-76
2022/11/03 02:07:01;;;;;;;14.83;3.37;;;11.10;99.90;;;;;;5075482;28;20278;-75
2022/11/03 02:09:28;;;;;;;14.57;3.00;;;11.10;99.90;;;;;;5075676;28;20767;-75
2022/11/03 02:12:06;;;;;;;12.83;3.03;;;11.00;99.90;;;;;;5075438;28;20275;-75
2022/11/03 02:14:33;;;;;;;13.40;3.17;;;11.00;99.90;;;;;;5074709;28;20282;-75
2022/11/03 02:17:04;;;;;;;14.73;3.20;;;10.90;99.90;;;;;;5075252;28;20759;-76
2022/11/03 02:19:32;;;;;;;12.90;2.93;;;10.90;99.90;;;;;;5075806;28;20606;-76
2022/11/03 02:22:16;;;;;;;16.37;3.70;;;10.90;99.90;;;;;;5074112;28;20287;-75
2022/11/03 02:25:03;;;;;;;18.43;3.03;;;10.80;99.90;;;;;;5075380;28;20287;-75
2022/11/03 02:27:29;;;;;;;14.80;3.00;;;10.80;99.90;;;;;;5075549;28;20387;-75
2022/11/03 02:29:56;;;;;;;14.63;3.00;;;10.80;99.90;;;;;;5075043;28;20794;-76
2022/11/03 02:32:26;;;;;;;16.47;2.83;;;10.80;99.90;;;;;;5075283;28;20045;-76
2022/11/03 02:35:00;;;;;;;12.87;3.13;;;10.80;99.90;;;;;;5075037;28;20778;-75
2022/11/03 02:37:30;;;;;;;17.37;3.50;;;10.80;99.90;;;;;;5075439;28;20287;-75
2022/11/03 02:40:01;;;;;;;11.87;2.70;;;10.80;99.90;;;;;;5074825;28;20374;-75
2022/11/03 02:42:28;;;;;;;14.47;3.30;;;10.80;99.90;;;;;;5075323;28;20369;-75
2022/11/03 02:44:58;;;;;;;11.43;2.77;;;10.80;99.90;;;;;;5074711;28;20275;-75
2022/11/03 02:47:27;;;;;;;11.03;3.13;;;10.80;99.90;;;;;;5075047;28;20365;-75
2022/11/03 02:49:53;;;;;;;12.73;3.17;;;10.80;99.90;;;;;;5074565;28;20798;-75
2022/11/03 02:52:39;;;;;;;16.63;3.00;;;10.80;99.90;;;;;;5074827;28;20279;-75
2022/11/03 02:55:28;;;;;;;13.73;3.23;;;10.80;99.90;;;;;;5074594;28;20374;-75
2022/11/03 02:58:13;;;;;;;12.43;3.00;;;10.80;99.90;;;;;;5107223;28;20294;-76
2022/11/03 03:00:51;;;;;;;17.50;3.77;;;10.80;99.90;;;;;;5074781;28;20271;-75
2022/11/03 03:03:23;;;;;;;17.03;3.43;;;10.90;99.90;;;;;;5074732;28;20278;-75
2022/11/03 03:05:52;;;;;;;13.47;2.23;;;10.90;99.90;;;;;;5074880;28;20283;-75
2022/11/03 03:08:20;;;;;;;18.77;3.70;;;10.90;99.90;;;;;;5074619;28;20457;-75
2022/11/03 03:10:48;;;;;;;15.57;3.40;;;10.90;99.90;;;;;;5074230;28;20782;-75
2022/11/03 03:13:18;;;;;;;14.37;3.27;;;10.90;99.90;;;;;;5074171;28;20279;-75
2022/11/03 03:15:46;;;;;;;15.83;3.97;;;10.90;99.90;;;;;;5074453;28;20369;-75
2022/11/03 03:18:26;;;;;;;11.83;2.90;;;10.90;99.90;;;;;;5074142;28;20289;-75
2022/11/03 03:21:03;;;;;;;16.33;2.87;;;11.00;99.90;;;;;;5074371;28;20275;-75
2022/11/03 03:23:34;;;;;;;19.37;3.47;;;10.90;99.90;;;;;;5074604;28;20334;-75
2022/11/03 03:26:43;;;;;;;18.00;3.43;;;10.90;99.90;;;;;;5074017;28;20293;-75
2022/11/03 03:29:27;;;;;;;17.70;4.30;;;10.90;99.90;;;;;;5073809;28;20628;-75
2022/11/03 03:31:57;;;;;;;13.90;2.93;;;10.90;99.90;;;;;;5074137;28;20289;-75
2022/11/03 03:34:25;;;;;;;19.40;3.80;;;10.90;99.90;;;;;;5106383;28;20373;-75
2022/11/03 03:36:54;;;;;;;14.13;3.03;;;10.90;99.90;;;;;;5073964;28;20279;-75
2022/11/03 03:39:24;;;;;;;18.67;3.97;;;10.90;99.90;;;;;;5073847;28;20286;-75
2022/11/03 03:41:51;;;;;;;13.50;3.07;;;10.80;99.90;;;;;;5074021;28;20282;-75
2022/11/03 03:44:17;;;;;;;13.07;3.53;;;10.80;99.90;;;;;;5073599;28;20287;-75
2022/11/03 03:46:55;;;;;;;13.37;3.13;;;10.80;99.90;;;;;;5073953;28;20275;-75
2022/11/03 03:49:21;;;;;;;15.97;3.17;;;10.80;99.90;;;;;;5074007;28;20295;-75
2022/11/03 03:51:48;;;;;;;15.67;3.37;;;10.80;99.90;;;;;;5073740;28;20290;-75
2022/11/03 03:54:14;;;;;;;18.43;3.67;;;10.70;99.90;;;;;;5073381;28;20098;-75
2022/11/03 03:56:47;;;;;;;10.13;2.93;;;10.70;99.90;;;;;;5106795;28;20286;-75
2022/11/03 03:59:13;;;;;;;14.57;3.70;;;10.70;99.90;;;;;;5073431;28;20076;-75
2022/11/03 04:01:39;;;;;;;16.10;3.37;;;10.70;99.90;;;;;;5073526;28;20809;-75
2022/11/03 04:04:04;;;;;;;14.63;3.40;;;10.70;99.90;;;;;;5073284;28;20040;-75
2022/11/03 04:06:30;;;;;;;12.33;2.60;;;10.60;99.90;;;;;;5106504;28;20052;-75
2022/11/03 04:08:56;;;;;;;14.40;3.10;;;10.60;99.90;;;;;;5073405;28;20037;-75
2022/11/03 04:22:22;;;;;;;15.03;3.30;;;10.60;99.90;;;;;;5073083;28;20275;-76
2022/11/03 04:24:49;;;;;;;14.07;3.00;;;10.60;99.90;;;;;;5073228;28;20312;-76
2022/11/03 04:27:32;;;;;;;15.27;3.23;;;10.60;99.90;;;;;;5073210;28;20285;-76
2022/11/03 04:30:18;;;;;;;14.20;3.67;;;10.60;99.90;;;;;;5073276;28;20413;-75
2022/11/03 04:32:46;;;;;;;13.73;3.30;;;10.60;99.90;;;;;;5073328;28;20283;-75
2022/11/03 04:35:15;;;;;;;15.83;3.17;;;10.60;99.90;;;;;;5072927;28;20282;-75
2022/11/03 04:37:41;;;;;;;12.07;2.87;;;10.60;99.90;;;;;;5105704;28;20287;-75
2022/11/03 04:40:14;;;;;;;16.53;3.27;;;10.60;99.90;;;;;;5072527;28;20374;-75
2022/11/03 04:42:40;;;;;;;14.37;3.23;;;10.70;99.90;;;;;;5073110;28;20049;-75
2022/11/03 04:45:13;;;;;;;17.50;3.20;;;10.60;99.90;;;;;;5072166;28;20310;-75
2022/11/03 04:47:39;;;;;;;16.53;4.30;;;10.60;99.90;;;;;;5073178;28;20135;-75
2022/11/03 04:50:13;;;;;;;15.90;3.37;;;10.60;99.90;;;;;;5072692;28;20775;-75
2022/11/03 04:52:39;;;;;;;18.05;3.53;;;10.60;99.90;;;;;;5073141;28;20044;-75
2022/11/03 04:55:11;;;;;;;14.50;2.60;;;10.60;99.90;;;;;;5072364;28;20106;-75
2022/11/03 04:57:39;;;;;;;15.20;3.17;;;10.60;99.90;;;;;;5072922;28;20053;-75
2022/11/03 05:00:06;;;;;;;12.83;3.40;;;10.60;99.90;;;;;;5072720;28;20274;-76
2022/11/03 05:02:32;;;;;;;13.07;2.67;;;10.60;99.90;;;;;;5105930;28;20665;-74
2022/11/03 05:04:58;;;;;;;12.57;2.87;;;10.60;99.90;;;;;;5072901;28;20290;-75
2022/11/03 05:07:32;;;;;;;16.90;3.07;;;10.70;99.90;;;;;;5072558;28;20064;-75
2022/11/03 05:09:59;;;;;;;15.63;3.63;;;10.60;99.90;;;;;;5105496;28;20309;-75
2022/11/03 05:12:25;;;;;;;15.47;2.83;;;10.60;99.90;;;;;;5072534;28;20235;-75
2022/11/03 05:14:51;;;;;;;14.40;3.50;;;10.70;99.90;;;;;;5072726;28;20735;-75
2022/11/03 05:17:26;;;;;;;17.97;3.67;;;10.60;99.90;;;;;;5072421;28;20052;-75
2022/11/03 05:20:00;;;;;;;15.88;3.22;;;10.70;99.90;;;;;;5105481;28;20344;-75
2022/11/03 05:22:30;;;;;;;14.80;3.60;;;10.70;99.90;;;;;;5072471;28;20048;-75
2022/11/03 05:25:01;;;;;;;19.33;4.10;;;10.70;99.90;;;;;;5071513;28;20283;-75
2022/11/03 05:27:27;;;;;;;16.80;2.73;;;10.70;99.90;;;;;;5072408;28;20841;-75
2022/11/03 05:29:56;;;;;;;15.73;3.83;;;10.70;99.90;;;;;;5072397;28;20298;-75
2022/11/03 05:32:25;;;;;;;16.33;3.37;;;10.70;99.90;;;;;;5105056;28;20291;-75
2022/11/03 05:34:53;;;;;;;17.67;3.43;;;10.70;99.90;;;;;;5072879;28;20297;-75
2022/11/03 05:37:30;;;;;;;12.50;3.00;;;10.70;99.90;;;;;;5072070;28;20286;-75
2022/11/03 05:40:03;;;;;;;11.10;2.67;;;10.70;99.90;;;;;;5072183;28;20300;-75
2022/11/03 05:42:36;;;;;;;18.57;3.87;;;10.70;99.90;;;;;;5072099;28;20290;-75
2022/11/03 05:45:13;;;;;;;15.60;2.77;;;10.70;99.90;;;;;;5072492;28;20792;-75
2022/11/03 05:47:39;;;;;;;18.10;3.80;;;10.70;99.90;;;;;;5072245;28;20287;-75
2022/11/03 05:50:35;;;;;;;13.90;3.40;;;10.70;99.90;;;;;;5072337;28;20348;-74
2022/11/03 05:53:11;;;;;;;15.25;3.03;;;10.70;99.90;;;;;;5072323;28;20364;-75
2022/11/03 05:55:37;;;;;;;11.17;2.77;;;10.70;99.90;;;;;;5072392;28;20044;-75
2022/11/03 05:58:25;;;;;;;14.37;2.87;;;10.70;99.90;;;;;;5074772;28;20332;-75
2022/11/03 06:00:51;;;;;;;16.77;3.47;;;10.70;99.90;;;;;;5108757;28;20066;-75
2022/11/03 06:03:25;;;;;;;17.00;3.60;;;10.70;99.90;;;;;;5075653;28;20385;-76
2022/11/03 06:05:52;;;;;;;13.20;3.00;;;10.70;99.90;;;;;;5075775;28;20064;-75
2022/11/03 06:08:21;;;;;;;13.43;2.43;;;10.70;99.90;;;;;;5075554;28;20040;-75
2022/11/03 06:10:58;;;;;;;14.80;3.23;;;10.70;99.90;;;;;;5075700;28;20352;-75
2022/11/03 06:13:34;;;;;;;15.80;2.63;;;10.80;99.90;;;;;;5075448;28;20723;-75
2022/11/03 06:16:16;;;;;;;13.70;3.17;;;10.80;99.90;;;;;;5090979;28;20355;-75
2022/11/03 06:18:42;;;;;;;11.40;3.10;;;10.80;99.90;;;;;;5075730;28;20279;-75
2022/11/03 06:21:22;;;;;;;13.70;2.87;;;10.80;99.90;;;;;;5075537;28;20693;-75
2022/11/03 06:23:48;;;;;;;15.77;3.60;;;10.80;99.90;;;;;;5075228;28;20493;-75
2022/11/03 06:26:24;;;;;;;18.37;3.33;;;10.80;99.90;;;;;;5075087;28;20291;-75
2022/11/03 06:28:50;;;;;;;15.32;3.70;;;10.80;99.90;;;;;;5075424;28;20725;-75
2022/11/03 06:31:27;;;;;;;14.73;2.70;;;10.80;99.90;;;;;;5074058;28;20055;-76
2022/11/03 06:33:54;;;;;;;9.93;2.80;;;10.80;99.90;;;;;;5075567;28;20297;-75
2022/11/03 06:36:23;;;;;;;10.57;3.00;;;10.80;99.90;;;;;;5074881;28;20759;-76
2022/11/03 06:39:09;;;;;;;16.47;3.50;;;10.80;99.90;;;;;;5075121;28;20344;-74
2022/11/03 06:41:36;;;;;;;12.57;3.03;;;10.80;99.90;;;;;;5074919;28;20385;-75
2022/11/03 06:44:24;;;;;;;16.40;4.20;;;10.80;99.90;;;;;;5075055;28;20357;-75
2022/11/03 06:46:53;;;;;;;15.00;3.00;;;10.80;99.90;;;;;;5074282;28;20725;-75
2022/11/03 06:49:34;;;;;;;16.67;2.87;;;10.80;99.90;;;;;;5074736;28;20291;-75
2022/11/03 06:52:25;;;;;;;15.30;2.90;;;10.80;99.90;;;;;;5074993;28;20287;-75
2022/11/03 06:55:20;;;;;;;13.67;3.47;;;10.90;99.90;;;;;;5074846;28;20289;-75
2022/11/03 06:57:48;;;;;;;16.45;3.63;;;10.90;99.90;;;;;;5070715;28;20680;-75
2022/11/03 07:00:22;;;;;;;17.87;3.57;;;10.90;99.90;;;;;;5074735;28;20125;-75
2022/11/03 07:02:55;;;;;;;14.80;3.33;;;10.90;99.90;;;;;;5074467;28;20333;-74
2022/11/03 07:05:23;;;;;;;17.07;3.73;;;11.00;99.90;;;;;;5074586;28;20488;-75
2022/11/03 07:07:52;;;;;;;13.80;2.67;;;11.00;99.90;;;;;;5074167;28;20279;-75
2022/11/03 07:10:18;;;;;;;14.37;3.13;;;11.00;99.90;;;;;;5074286;28;20678;-76
2022/11/03 07:12:44;;;;;;;11.30;2.93;;;11.00;99.90;;;;;;5074490;28;20286;-75
2022/11/03 07:15:24;;;;;;;15.47;3.57;;;11.00;99.90;;;;;;5074508;28;20048;-75
2022/11/03 07:17:50;;;;;;;12.73;3.43;;;11.00;99.90;;;;;;5074532;28;20088;-75
2022/11/03 07:20:17;;;;;;;14.30;3.33;;;11.10;99.90;;;;;;5074419;28;20622;-75
2022/11/03 07:22:44;;;;;;;17.47;3.67;;;11.10;99.90;;;;;;5074092;28;20275;-75
2022/11/03 07:25:18;;;;;;;12.23;2.60;;;11.10;99.90;;;;;;5073312;28;20298;-74
2022/11/03 07:27:45;;;;;;;12.97;2.50;;;11.10;99.90;;;;;;5074001;28;20777;-75
2022/11/03 07:30:21;;;;;;;10.60;3.10;;;11.20;99.90;;;;;;5073012;28;20315;-75
2022/11/03 07:32:51;;;;;;;13.30;2.80;;;11.20;99.90;;;;;;5073897;28;20289;-75
2022/11/03 07:35:16;;;;;;;13.37;2.90;;;11.20;99.90;;;;;;5074165;28;20353;-75
2022/11/03 07:37:46;;;;;;;11.43;2.90;;;11.20;99.90;;;;;;5073708;28;20291;-75
2022/11/03 07:40:26;;;;;;;10.03;2.43;;;11.30;99.90;;;;;;5073946;28;20044;-75
2022/11/03 07:42:56;;;;;;;11.43;2.93;;;11.30;99.90;;;;;;5053242;28;20349;-75
2022/11/03 07:45:51;;;;;;;12.60;2.60;;;11.30;99.90;;;;;;5053828;28;20267;-77
2022/11/03 07:48:32;;;;;;;13.83;2.67;;;11.30;99.90;;;;;;5053899;28;20275;-77
2022/11/03 07:51:23;;;;;;;12.60;3.00;;;11.30;99.90;;;;;;5052665;28;20292;-77
2022/11/03 07:54:14;;;;;;;14.63;2.87;;;11.40;99.90;;;;;;5053732;28;20373;-77
2022/11/03 07:56:47;;;;;;;14.53;3.13;;;11.40;99.90;;;;;;5053507;28;20275;-78
2022/11/03 07:59:20;;;;;;;10.97;2.80;;;11.40;99.90;;;;;;5052414;28;20287;-78
2022/11/03 08:01:53;;;;;;;10.50;2.70;;;11.50;99.90;;;;;;5053476;28;20275;-77
2022/11/03 08:04:24;;;;;;;16.17;3.00;;;11.50;99.90;;;;;;5053522;28;20632;-78
2022/11/03 08:06:50;;;;;;;10.83;2.40;;;11.50;99.90;;;;;;5053516;28;20291;-78
2022/11/03 08:09:16;;;;;;;15.20;3.40;;;11.50;99.90;;;;;;5053712;28;20302;-77
2022/11/03 08:11:42;;;;;;;15.17;2.83;;;11.60;99.90;;;;;;5052295;28;20291;-78
2022/11/03 08:14:09;;;;;;;16.97;3.83;;;11.60;99.90;;;;;;5053399;28;20280;-77
2022/11/03 08:16:35;;;;;;;12.87;2.93;;;11.60;99.90;;;;;;5053050;28;20283;-78
2022/11/03 08:19:01;;;;;;;14.10;3.60;;;11.70;99.90;;;;;;5053116;28;20280;-78
2022/11/03 08:21:27;;;;;;;14.27;3.13;;;11.80;99.90;;;;;;5052998;28;20390;-79
2022/11/03 08:23:53;;;;;;;15.77;2.97;;;11.80;99.90;;;;;;5068797;28;20055;-77
2022/11/03 08:26:19;;;;;;;11.13;2.77;;;11.90;99.90;;;;;;5052346;28;20374;-77
2022/11/03 08:28:44;;;;;;;17.90;3.33;;;11.90;99.90;;;;;;5052819;28;20049;-78
2022/11/03 08:31:10;;;;;;;16.07;3.07;;;12.00;99.90;;;;;;5052216;28;20287;-78
2022/11/03 08:33:36;;;;;;;13.70;3.03;;;12.00;99.90;;;;;;5051577;28;20053;-78
2022/11/03 08:36:03;;;;;;;15.53;2.90;;;12.10;99.90;;;;;;5053101;28;20485;-80
2022/11/03 08:38:29;;;;;;;15.63;3.60;;;12.10;99.90;;;;;;5052905;28;20398;-78
2022/11/03 08:40:57;;;;;;;9.37;2.77;;;12.20;99.90;;;;;;5052174;28;20288;-78
2022/11/03 08:43:23;;;;;;;12.40;3.10;;;12.20;99.90;;;;;;5053066;28;20290;-78
2022/11/03 08:45:52;;;;;;;13.77;3.00;;;12.30;99.90;;;;;;5052708;28;20330;-80
2022/11/03 08:48:22;;;;;;;13.47;3.47;;;12.30;99.90;;;;;;5066130;28;20312;-81
2022/11/03 08:50:49;;;;;;;9.83;2.53;;;12.30;99.90;;;;;;5072291;28;20306;-82
2022/11/03 08:53:15;;;;;;;12.27;3.20;;;12.30;99.90;;;;;;5072599;28;20283;-81
2022/11/03 08:55:41;;;;;;;16.07;4.30;;;12.30;99.90;;;;;;5072259;28;20631;-79
2022/11/03 08:58:07;;;;;;;15.13;3.27;;;12.30;99.90;;;;;;5072530;28;20287;-79
2022/11/03 09:00:35;;;;;;;12.73;3.07;;;12.40;99.90;;;;;;5072530;28;20115;-80
2022/11/03 09:03:00;;;;;;;10.23;3.30;;;12.40;99.90;;;;;;5072297;28;20515;-79
2022/11/03 09:05:26;;;;;;;14.50;3.30;;;12.40;99.90;;;;;;5068597;28;20283;-78
2022/11/03 09:07:52;;;;;;;12.80;3.20;;;12.40;99.90;;;;;;5054591;28;20052;-81
2022/11/03 09:10:17;;;;;;;11.60;2.87;;;12.40;99.90;;;;;;5070945;28;20124;-82
2022/11/03 09:12:43;;;;;;;13.77;4.00;;;12.40;99.90;;;;;;5071476;28;20084;-81
2022/11/03 09:15:09;;;;;;;10.20;2.40;;;12.50;99.90;;;;;;5072784;28;20051;-81
2022/11/03 09:17:35;;;;;;;15.03;2.83;;;12.50;99.90;;;;;;5072630;28;20399;-82
2022/11/03 09:20:01;;;;;;;15.83;3.33;;;12.60;99.90;;;;;;5072714;28;20363;-81
2022/11/03 09:22:27;;;;;;;15.83;3.23;;;12.60;99.90;;;;;;5072708;28;20168;-78
2022/11/03 09:24:52;;;;;;;12.30;3.53;;;12.70;99.90;;;;;;5072426;28;20848;-84
2022/11/03 09:27:18;;;;;;;11.13;2.90;;;12.70;99.90;;;;;;5105233;28;20103;-79
2022/11/03 09:29:44;;;;;;;12.23;3.10;;;12.70;99.90;;;;;;5072302;28;20040;-77
2022/11/03 09:32:09;;;;;;;12.10;3.10;;;12.80;99.90;;;;;;5075498;28;20048;-80
2022/11/03 09:34:35;;;;;;;12.83;3.43;;;12.80;99.90;;;;;;5075942;28;20048;-78
2022/11/03 09:37:01;;;;;;;15.73;3.57;;;12.90;99.90;;;;;;5076514;28;20076;-79
2022/11/03 09:39:26;;;;;;;13.03;3.53;;;12.90;99.90;;;;;;5109070;28;20044;-80
2022/11/03 09:41:54;;;;;;;14.83;3.27;;;13.00;99.90;;;;;;5075971;28;20049;-80
2022/11/03 09:44:20;;;;;;;10.97;3.07;;;13.00;99.90;;;;;;5076474;28;20091;-83
2022/11/03 09:46:46;;;;;;;9.83;3.17;;;13.10;99.90;;;;;;5108812;28;20286;-78
2022/11/03 09:49:14;;;;;;;17.77;3.63;;;13.10;99.90;;;;;;5076200;28;20044;-79
2022/11/03 09:51:41;;;;;;;12.60;3.23;;;13.20;99.90;;;;;;5076028;28;20282;-76
2022/11/03 09:54:13;;;;;;;14.60;2.87;;;13.30;99.90;;;;;;5076135;28;20275;-76
2022/11/03 09:56:38;;;;;;;9.40;3.23;;;13.30;99.90;;;;;;5075229;28;20278;-76
2022/11/03 09:59:16;;;;;;;10.13;3.07;;;13.30;99.90;;;;;;5075971;28;20282;-76
2022/11/03 10:01:44;;;;;;;10.57;2.60;;;13.40;99.90;;;;;;5075741;28;20062;-83
2022/11/03 10:04:11;;;;;;;12.90;3.33;;;13.40;99.90;;;;;;5058537;28;20353;-91
2022/11/03 10:06:38;;;;;;;11.47;3.30;;;13.40;99.90;;;;;;5075281;28;20286;-82
2022/11/03 10:09:06;;;;;;;13.47;2.80;;;13.40;99.90;;;;;;5075638;28;20302;-81
2022/11/03 10:11:33;;;;;;;14.37;3.33;;;13.40;99.90;;;;;;5075704;28;20336;-81
2022/11/03 10:13:59;;;;;;;12.83;3.47;;;13.40;99.90;;;;;;5075363;28;20287;-79
2022/11/03 10:16:26;;;;;;;10.83;3.17;;;13.40;99.90;;;;;;5075351;28;20298;-79
2022/11/03 10:18:52;;;;;;;15.30;3.30;;;13.40;99.90;;;;;;5075353;28;20683;-77
2022/11/03 10:21:29;;;;;;;10.20;3.00;;;13.50;99.90;;;;;;5075554;28;20273;-77
2022/11/03 10:23:55;;;;;;;16.90;3.47;;;13.50;99.90;;;;;;5108288;28;20295;-81
2022/11/03 10:26:22;;;;;;;16.33;3.50;;;13.50;99.90;;;;;;5075387;28;20816;-78
2022/11/03 10:29:18;;;;;;;11.60;3.00;;;13.50;99.90;;;;;;5074159;28;20141;-78
2022/11/03 10:31:48;;;;;;;14.23;3.30;;;13.50;99.90;;;;;;5069414;28;20293;-77
2022/11/03 10:34:24;;;;;;;10.87;3.40;;;13.50;99.90;;;;;;5073944;28;20295;-76
2022/11/03 10:37:08;;;;;;;12.90;3.17;;;13.60;99.90;;;;;;5075117;28;20364;-77
2022/11/03 10:39:34;;;;;;;12.77;3.10;;;13.60;99.90;;;;;;5075342;28;20277;-77
2022/11/03 10:41:59;;;;;;;13.23;3.20;;;13.60;99.90;;;;;;5074496;28;20285;-77
2022/11/03 10:44:27;;;;;;;12.57;3.03;;;13.70;99.90;;;;;;5074679;28;20102;-80
2022/11/03 10:47:01;;;;;;;14.87;3.83;;;13.70;99.90;;;;;;5074775;28;20472;-81
2022/11/03 10:49:29;;;;;;;15.37;3.77;;;13.80;99.90;;;;;;5074913;28;20299;-79
2022/11/03 10:52:19;;;;;;;14.03;2.93;;;13.80;99.90;;;;;;5074709;28;20282;-78
2022/11/03 10:54:46;;;;;;;12.00;3.17;;;13.90;99.90;;;;;;5073259;28;20293;-78
2022/11/03 10:57:12;;;;;;;18.17;3.53;;;13.90;99.90;;;;;;5075014;28;20325;-80
2022/11/03 10:59:38;;;;;;;10.40;2.87;;;14.00;99.90;;;;;;5074755;28;20324;-85
2022/11/03 11:02:17;;;;;;;11.00;3.10;;;14.00;99.90;;;;;;5074521;28;20282;-82
2022/11/03 11:04:44;;;;;;;11.27;3.33;;;14.10;99.90;;;;;;5074692;28;20275;-79
2022/11/03 11:07:25;;;;;;;11.37;3.27;;;14.10;99.90;;;;;;5074496;28;20747;-78
2022/11/03 11:09:53;;;;;;;13.03;4.00;;;14.10;99.90;;;;;;5074327;28;20307;-75
2022/11/03 11:12:22;;;;;;;11.40;3.00;;;14.10;99.90;;;;;;5074393;28;20282;-83
2022/11/03 11:14:59;;;;;;;12.93;2.90;;;14.20;99.90;;;;;;5072999;28;20294;-82
2022/11/03 11:17:36;;;;;;;13.93;3.27;;;14.20;99.90;;;;;;5074486;28;20271;-82
2022/11/03 11:20:21;;;;;;;9.70;2.87;;;14.20;99.90;;;;;;5074104;28;20278;-83
2022/11/03 11:22:48;;;;;;;12.97;3.07;;;14.20;99.90;;;;;;5073549;28;20682;-82
2022/11/03 11:25:14;;;;;;;10.40;3.20;;;14.20;99.90;;;;;;5073083;28;20286;-82
2022/11/03 11:27:45;;;;;;;8.90;2.63;;;14.30;99.90;;;;;;5073028;28;20286;-80
2022/11/03 11:30:20;;;;;;;10.77;3.17;;;14.40;99.90;;;;;;5072610;28;20790;-77
2022/11/03 11:32:46;;;;;;;7.80;2.95;;;14.40;99.90;;;;;;5074192;28;20286;-83
2022/11/03 11:35:16;;;;;;;9.63;2.90;;;14.50;99.90;;;;;;5073927;28;20056;-80
2022/11/03 11:37:43;;;;;;;10.50;3.00;;;14.50;99.90;;;;;;5073136;28;20412;-83
2022/11/03 11:40:33;;;;;;;12.47;3.20;;;14.50;99.90;;;;;;5072768;28;20398;-84
2022/11/03 11:43:01;;;;;;;11.50;2.87;;;14.50;99.90;;;;;;5065860;28;20428;-76
2022/11/03 11:46:04;;;;;;;10.87;3.10;;;14.50;99.90;;;;;;5073933;28;20279;-81
2022/11/03 11:48:31;;;;;;;11.57;3.00;;;14.60;99.90;;;;;;5073842;28;20274;-79
2022/11/03 11:50:57;;;;;;;9.20;3.27;;;14.60;99.90;;;;;;5072146;28;20786;-80
2022/11/03 11:53:24;;;;;;;13.70;3.03;;;14.50;99.90;;;;;;5073662;28;20347;-79
2022/11/03 11:55:54;;;;;;;9.77;2.70;;;14.60;99.90;;;;;;5073874;28;20286;-79
2022/11/03 11:58:25;;;;;;;12.00;3.23;;;14.60;99.90;;;;;;5073711;28;20284;-79
2022/11/03 12:01:23;;;;;;;11.97;3.50;;;14.60;99.90;;;;;;5073677;28;20413;-79
2022/11/03 12:03:50;;;;;;;13.07;3.30;;;14.60;99.90;;;;;;5069430;28;20420;-80
2022/11/03 12:06:16;;;;;;;8.77;2.30;;;14.60;99.90;;;;;;5073291;28;20275;-79
2022/11/03 12:08:43;;;;;;;13.43;3.77;;;14.60;99.90;;;;;;5073531;28;20627;-82
2022/11/03 12:11:11;;;;;;;8.77;2.47;;;14.60;99.90;;;;;;5072123;28;20044;-79
2022/11/03 12:13:52;;;;;;;10.40;3.33;;;14.70;99.90;;;;;;5073492;28;20279;-83
2022/11/03 12:16:29;;;;;;;9.50;3.50;;;14.70;99.90;;;;;;5073284;28;20371;-76
2022/11/03 12:18:55;;;;;;;9.43;3.07;;;14.70;99.90;;;;;;5071861;28;20287;-80
2022/11/03 12:21:44;;;;;;;12.27;2.97;;;14.60;99.90;;;;;;5072522;28;20286;-74
2022/11/03 12:24:31;;;;;;;11.17;3.03;;;14.70;99.90;;;;;;5073052;28;20362;-75
2022/11/03 12:26:58;;;;;;;8.87;2.97;;;14.60;99.90;;;;;;5072974;28;20763;-75
2022/11/03 12:29:25;;;;;;;11.10;2.83;;;14.60;99.90;;;;;;5073006;28;20806;-76
2022/11/03 12:31:50;;;;;;;12.17;2.73;;;14.70;99.90;;;;;;5073186;28;20357;-74
2022/11/03 12:34:16;;;;;;;8.97;2.90;;;14.70;99.90;;;;;;5072336;28;20092;-75
2022/11/03 12:36:43;;;;;;;9.90;2.80;;;14.70;99.90;;;;;;5072903;28;20535;-75
2022/11/03 12:39:09;;;;;;;9.87;3.23;;;14.70;99.90;;;;;;5072818;28;20051;-78
2022/11/03 12:41:35;;;;;;;11.17;2.57;;;14.80;99.90;;;;;;5073340;28;20040;-79
2022/11/03 12:44:01;;;;;;;13.73;3.20;;;14.70;99.90;;;;;;5071603;28;20286;-72
2022/11/03 12:46:27;;;;;;;9.77;2.30;;;14.70;99.90;;;;;;5073305;28;20048;-76
2022/11/03 12:48:52;;;;;;;10.90;2.80;;;14.80;99.90;;;;;;5072935;28;20500;-77
2022/11/03 12:51:20;;;;;;;9.60;2.53;;;14.80;99.90;;;;;;5072845;28;20052;-84
2022/11/03 12:53:46;;;;;;;8.17;2.13;;;14.80;99.90;;;;;;5071923;28;20044;-79
2022/11/03 12:56:14;;;;;;;8.63;2.67;;;14.80;99.90;;;;;;5071785;28;20369;-79
2022/11/03 12:58:39;;;;;;;9.20;2.30;;;14.80;99.90;;;;;;5072278;28;20046;-79
2022/11/03 13:01:06;;;;;;;8.80;2.70;;;14.90;99.90;;;;;;5071135;28;20340;-80
2022/11/03 13:03:33;;;;;;;12.50;3.17;;;14.90;99.90;;;;;;5073139;28;20485;-79
2022/11/03 13:05:59;;;;;;;8.53;2.37;;;14.90;99.90;;;;;;5074182;28;20084;-80
2022/11/03 13:08:26;;;;;;;10.03;3.17;;;14.90;99.90;;;;;;5077183;28;20080;-79
2022/11/03 13:10:52;;;;;;;9.47;2.87;;;14.90;99.90;;;;;;5076986;28;20345;-80